Amity, Oregon
Current Conditions -  °F | °C
As of 5:53 PM on Friday 24 Oct 2014 (Local Time) from KMMV Reporting Station
Broken Clouds Broken Clouds  
Wind Chill: 53°   Ceiling: 6500
Heat Index: 53°   Visibility: 7mi
Dew Point: 51°   Wind: 6mph
Humidity: 93%   Direction: 350°N
Pressure: 29.81"   Gusts: NA
Location:  45.12°N, 123.21°W
Report Text: KMMV 250053Z AUTO 35005KT 7SM FEW021 SCT046 BKN065 12/11 A2981 RMK AO2 RAE51 SLP093 P0005 T01170106
Loading
Personal Weather Stations






























Interactive Weather Map
Tropical Storm Tracking
New forecast layout! Learn more

10-Day Weather Forecast

Advertisements
Track Severe Weather on mobile